sensor_id;sensor_type;location;lat;lon;timestamp;pressure;altitude;pressure_sealevel;temperature;humidity
9521;BME280;4798;41.574;23.734;2023-12-14T00:01:29;94757.84;;;6.24;100.00
9521;BME280;4798;41.574;23.734;2023-12-14T00:03:59;94714.09;;;6.13;100.00
9521;BME280;4798;41.574;23.734;2023-12-14T00:06:29;94750.91;;;6.60;100.00
9521;BME280;4798;41.574;23.734;2023-12-14T00:08:58;94749.31;;;6.59;100.00
9521;BME280;4798;41.574;23.734;2023-12-14T00:11:27;94751.69;;;6.66;100.00
9521;BME280;4798;41.574;23.734;2023-12-14T00:13:55;94758.78;;;6.55;100.00
9521;BME280;4798;41.574;23.734;2023-12-14T00:16:24;94763.81;;;6.67;100.00
9521;BME280;4798;41.574;23.734;2023-12-14T00:18:52;94775.66;;;6.59;100.00
9521;BME280;4798;41.574;23.734;2023-12-14T00:21:22;94759.00;;;6.49;100.00
9521;BME280;4798;41.574;23.734;2023-12-14T00:23:51;94759.25;;;6.42;100.00
9521;BME280;4798;41.574;23.734;2023-12-14T00:26:20;94770.63;;;6.53;100.00
9521;BME280;4798;41.574;23.734;2023-12-14T00:28:48;94766.44;;;6.62;100.00
9521;BME280;4798;41.574;23.734;2023-12-14T00:31:19;94769.06;;;6.62;100.00
9521;BME280;4798;41.574;23.734;2023-12-14T00:33:48;94773.31;;;6.63;100.00
9521;BME280;4798;41.574;23.734;2023-12-14T00:36:19;94780.81;;;6.39;100.00
9521;BME280;4798;41.574;23.734;2023-12-14T00:38:49;94769.88;;;6.15;100.00
9521;BME280;4798;41.574;23.734;2023-12-14T00:41:18;94789.38;;;6.14;100.00
9521;BME280;4798;41.574;23.734;2023-12-14T00:43:46;94779.66;;;6.25;100.00
9521;BME280;4798;41.574;23.734;2023-12-14T00:46:15;94787.88;;;6.33;100.00
9521;BME280;4798;41.574;23.734;2023-12-14T00:48:43;94787.16;;;6.43;100.00
9521;BME280;4798;41.574;23.734;2023-12-14T00:51:12;94774.56;;;6.50;100.00
9521;BME280;4798;41.574;23.734;2023-12-14T00:53:41;94791.16;;;6.09;100.00
9521;BME280;4798;41.574;23.734;2023-12-14T00:56:11;94792.69;;;5.68;100.00
9521;BME280;4798;41.574;23.734;2023-12-14T00:58:40;94788.91;;;5.86;100.00
9521;BME280;4798;41.574;23.734;2023-12-14T01:01:08;94791.31;;;5.60;100.00
9521;BME280;4798;41.574;23.734;2023-12-14T01:03:37;94783.47;;;5.65;100.00
9521;BME280;4798;41.574;23.734;2023-12-14T01:06:06;94790.56;;;5.65;100.00
9521;BME280;4798;41.574;23.734;2023-12-14T01:08:35;94774.31;;;5.73;100.00
9521;BME280;4798;41.574;23.734;2023-12-14T01:11:03;94773.78;;;6.08;100.00
9521;BME280;4798;41.574;23.734;2023-12-14T01:13:33;94774.19;;;6.26;100.00
9521;BME280;4798;41.574;23.734;2023-12-14T01:16:02;94762.91;;;6.36;100.00
9521;BME280;4798;41.574;23.734;2023-12-14T01:18:31;94760.97;;;6.16;100.00
9521;BME280;4798;41.574;23.734;2023-12-14T01:21:00;94772.53;;;6.15;100.00
9521;BME280;4798;41.574;23.734;2023-12-14T01:23:28;94769.44;;;6.28;100.00
9521;BME280;4798;41.574;23.734;2023-12-14T01:25:57;94777.81;;;6.20;100.00
9521;BME280;4798;41.574;23.734;2023-12-14T01:28:26;94769.19;;;6.30;100.00
9521;BME280;4798;41.574;23.734;2023-12-14T01:30:56;94762.03;;;6.20;100.00
9521;BME280;4798;41.574;23.734;2023-12-14T01:33:25;94776.81;;;6.26;100.00
9521;BME280;4798;41.574;23.734;2023-12-14T01:35:53;94774.16;;;6.21;100.00
9521;BME280;4798;41.574;23.734;2023-12-14T01:38:22;94748.59;;;6.17;100.00
9521;BME280;4798;41.574;23.734;2023-12-14T01:40:50;94744.09;;;6.17;100.00
9521;BME280;4798;41.574;23.734;2023-12-14T01:43:19;94745.22;;;6.26;100.00
9521;BME280;4798;41.574;23.734;2023-12-14T01:45:48;94747.28;;;6.14;100.00
9521;BME280;4798;41.574;23.734;2023-12-14T01:48:18;94743.97;;;5.92;100.00
9521;BME280;4798;41.574;23.734;2023-12-14T01:50:46;94748.28;;;6.08;100.00
9521;BME280;4798;41.574;23.734;2023-12-14T01:53:15;94728.75;;;5.94;100.00
9521;BME280;4798;41.574;23.734;2023-12-14T01:55:44;94744.09;;;6.12;100.00
9521;BME280;4798;41.574;23.734;2023-12-14T01:58:12;94749.91;;;6.14;100.00
9521;BME280;4798;41.574;23.734;2023-12-14T02:00:46;94735.28;;;5.55;100.00
9521;BME280;4798;41.574;23.734;2023-12-14T02:03:18;94742.19;;;5.02;100.00
9521;BME280;4798;41.574;23.734;2023-12-14T02:05:47;94736.34;;;4.95;100.00
9521;BME280;4798;41.574;23.734;2023-12-14T02:08:15;94742.78;;;5.36;100.00
9521;BME280;4798;41.574;23.734;2023-12-14T02:10:45;94744.75;;;5.56;100.00
9521;BME280;4798;41.574;23.734;2023-12-14T02:13:15;94738.47;;;5.62;100.00
9521;BME280;4798;41.574;23.734;2023-12-14T02:15:44;94747.19;;;5.67;100.00
9521;BME280;4798;41.574;23.734;2023-12-14T02:18:12;94750.31;;;5.96;100.00
9521;BME280;4798;41.574;23.734;2023-12-14T02:20:42;94758.22;;;5.96;100.00
9521;BME280;4798;41.574;23.734;2023-12-14T02:23:12;94753.78;;;5.70;100.00
9521;BME280;4798;41.574;23.734;2023-12-14T02:25:41;94736.53;;;5.16;100.00
9521;BME280;4798;41.574;23.734;2023-12-14T02:28:10;94748.03;;;5.36;100.00
9521;BME280;4798;41.574;23.734;2023-12-14T02:30:38;94754.22;;;5.25;100.00
9521;BME280;4798;41.574;23.734;2023-12-14T02:33:07;94734.91;;;4.83;100.00
9521;BME280;4798;41.574;23.734;2023-12-14T02:35:35;94746.81;;;4.90;100.00
9521;BME280;4798;41.574;23.734;2023-12-14T02:38:04;94750.34;;;5.06;100.00
9521;BME280;4798;41.574;23.734;2023-12-14T02:40:34;94732.19;;;4.99;100.00
9521;BME280;4798;41.574;23.734;2023-12-14T02:43:03;94743.09;;;5.13;100.00
9521;BME280;4798;41.574;23.734;2023-12-14T02:45:31;94721.72;;;5.04;100.00
9521;BME280;4798;41.574;23.734;2023-12-14T02:48:00;94736.88;;;5.24;100.00
9521;BME280;4798;41.574;23.734;2023-12-14T02:50:29;94734.88;;;5.36;100.00
9521;BME280;4798;41.574;23.734;2023-12-14T02:52:57;94712.09;;;5.15;100.00
9521;BME280;4798;41.574;23.734;2023-12-14T02:55:27;94734.53;;;5.28;100.00
9521;BME280;4798;41.574;23.734;2023-12-14T02:57:57;94727.19;;;5.30;100.00
9521;BME280;4798;41.574;23.734;2023-12-14T03:00:25;94736.03;;;5.50;100.00
9521;BME280;4798;41.574;23.734;2023-12-14T03:02:54;94734.63;;;5.38;100.00
9521;BME280;4798;41.574;23.734;2023-12-14T03:05:22;94731.28;;;5.47;100.00
9521;BME280;4798;41.574;23.734;2023-12-14T03:07:51;94733.22;;;5.62;100.00
9521;BME280;4798;41.574;23.734;2023-12-14T03:10:20;94727.25;;;5.35;100.00
9521;BME280;4798;41.574;23.734;2023-12-14T03:12:48;94707.97;;;5.24;100.00
9521;BME280;4798;41.574;23.734;2023-12-14T03:15:18;94735.75;;;5.47;100.00
9521;BME280;4798;41.574;23.734;2023-12-14T03:17:47;94719.94;;;5.42;100.00
9521;BME280;4798;41.574;23.734;2023-12-14T03:20:16;94733.78;;;5.32;100.00
9521;BME280;4798;41.574;23.734;2023-12-14T03:22:44;94747.81;;;5.43;100.00
9521;BME280;4798;41.574;23.734;2023-12-14T03:25:13;94745.28;;;5.21;100.00
9521;BME280;4798;41.574;23.734;2023-12-14T03:27:41;94741.84;;;4.67;100.00
9521;BME280;4798;41.574;23.734;2023-12-14T03:30:11;94741.56;;;4.90;100.00
9521;BME280;4798;41.574;23.734;2023-12-14T03:32:41;94712.00;;;4.52;100.00
9521;BME280;4798;41.574;23.734;2023-12-14T03:35:10;94732.44;;;4.98;100.00
9521;BME280;4798;41.574;23.734;2023-12-14T03:37:39;94755.47;;;5.18;100.00
9521;BME280;4798;41.574;23.734;2023-12-14T03:40:08;94755.03;;;5.26;100.00
9521;BME280;4798;41.574;23.734;2023-12-14T03:42:36;94738.38;;;5.15;100.00
9521;BME280;4798;41.574;23.734;2023-12-14T03:45:06;94750.16;;;5.12;100.00
9521;BME280;4798;41.574;23.734;2023-12-14T03:47:35;94730.53;;;5.20;100.00
9521;BME280;4798;41.574;23.734;2023-12-14T03:50:06;94751.63;;;5.30;100.00
9521;BME280;4798;41.574;23.734;2023-12-14T03:52:36;94747.28;;;5.41;100.00
9521;BME280;4798;41.574;23.734;2023-12-14T03:55:06;94742.34;;;5.18;100.00
9521;BME280;4798;41.574;23.734;2023-12-14T03:57:35;94731.03;;;5.17;100.00
9521;BME280;4798;41.574;23.734;2023-12-14T04:00:05;94743.31;;;5.11;100.00
9521;BME280;4798;41.574;23.734;2023-12-14T04:02:35;94747.38;;;4.71;100.00
9521;BME280;4798;41.574;23.734;2023-12-14T04:05:06;94750.31;;;4.74;100.00
9521;BME280;4798;41.574;23.734;2023-12-14T04:07:36;94745.25;;;4.94;100.00
9521;BME280;4798;41.574;23.734;2023-12-14T04:10:08;94753.13;;;4.94;100.00
9521;BME280;4798;41.574;23.734;2023-12-14T04:12:38;94746.00;;;5.17;100.00
9521;BME280;4798;41.574;23.734;2023-12-14T04:15:08;94755.88;;;5.31;100.00
9521;BME280;4798;41.574;23.734;2023-12-14T04:17:37;94754.22;;;5.25;100.00
9521;BME280;4798;41.574;23.734;2023-12-14T04:20:09;94749.09;;;5.13;100.00
9521;BME280;4798;41.574;23.734;2023-12-14T04:22:37;94757.88;;;5.24;100.00
9521;BME280;4798;41.574;23.734;2023-12-14T04:25:07;94738.91;;;5.17;100.00
9521;BME280;4798;41.574;23.734;2023-12-14T04:27:35;94746.00;;;5.48;100.00
9521;BME280;4798;41.574;23.734;2023-12-14T04:30:05;94743.09;;;5.45;100.00
9521;BME280;4798;41.574;23.734;2023-12-14T04:32:38;94752.31;;;5.47;100.00
9521;BME280;4798;41.574;23.734;2023-12-14T04:35:08;94761.34;;;5.30;100.00
9521;BME280;4798;41.574;23.734;2023-12-14T04:37:37;94751.84;;;5.24;100.00
9521;BME280;4798;41.574;23.734;2023-12-14T04:40:06;94743.09;;;5.13;100.00
9521;BME280;4798;41.574;23.734;2023-12-14T04:42:35;94760.19;;;5.16;100.00
9521;BME280;4798;41.574;23.734;2023-12-14T04:45:05;94763.09;;;5.19;100.00
9521;BME280;4798;41.574;23.734;2023-12-14T04:47:36;94758.19;;;5.28;100.00
9521;BME280;4798;41.574;23.734;2023-12-14T04:50:05;94756.09;;;5.30;100.00
9521;BME280;4798;41.574;23.734;2023-12-14T04:52:36;94759.22;;;5.27;100.00
9521;BME280;4798;41.574;23.734;2023-12-14T04:55:06;94749.81;;;5.31;100.00
9521;BME280;4798;41.574;23.734;2023-12-14T04:57:35;94705.22;;;5.09;100.00
9521;BME280;4798;41.574;23.734;2023-12-14T05:00:05;94742.59;;;5.48;100.00
9521;BME280;4798;41.574;23.734;2023-12-14T05:02:34;94747.81;;;5.43;100.00
9521;BME280;4798;41.574;23.734;2023-12-14T05:05:04;94752.78;;;5.44;100.00
9521;BME280;4798;41.574;23.734;2023-12-14T05:07:32;94701.09;;;5.18;100.00
9521;BME280;4798;41.574;23.734;2023-12-14T05:10:03;94758.34;;;5.48;100.00
9521;BME280;4798;41.574;23.734;2023-12-14T05:12:32;94760.59;;;5.34;100.00
9521;BME280;4798;41.574;23.734;2023-12-14T05:15:01;94755.59;;;5.33;100.00
9521;BME280;4798;41.574;23.734;2023-12-14T05:17:29;94757.88;;;5.24;100.00
9521;BME280;4798;41.574;23.734;2023-12-14T05:19:58;94765.53;;;5.26;100.00
9521;BME280;4798;41.574;23.734;2023-12-14T05:22:27;94755.22;;;5.19;100.00
9521;BME280;4798;41.574;23.734;2023-12-14T05:24:56;94767.97;;;4.57;100.00
9521;BME280;4798;41.574;23.734;2023-12-14T05:27:26;94770.63;;;4.19;100.00
9521;BME280;4798;41.574;23.734;2023-12-14T05:29:54;94770.38;;;3.99;100.00
9521;BME280;4798;41.574;23.734;2023-12-14T05:32:23;94760.81;;;4.31;100.00
9521;BME280;4798;41.574;23.734;2023-12-14T05:34:51;94747.13;;;4.72;100.00
9521;BME280;4798;41.574;23.734;2023-12-14T05:37:20;94754.41;;;4.65;100.00
9521;BME280;4798;41.574;23.734;2023-12-14T05:39:48;94751.16;;;4.80;100.00
9521;BME280;4798;41.574;23.734;2023-12-14T05:42:17;94738.38;;;4.88;100.00
9521;BME280;4798;41.574;23.734;2023-12-14T05:44:47;94744.22;;;4.95;100.00
9521;BME280;4798;41.574;23.734;2023-12-14T05:47:15;94747.81;;;4.41;100.00
9521;BME280;4798;41.574;23.734;2023-12-14T05:49:44;94744.53;;;4.29;100.00
9521;BME280;4798;41.574;23.734;2023-12-14T05:52:13;94713.13;;;4.12;100.00
9521;BME280;4798;41.574;23.734;2023-12-14T05:54:41;94762.56;;;4.69;100.00
9521;BME280;4798;41.574;23.734;2023-12-14T05:57:10;94760.25;;;4.72;100.00
9521;BME280;4798;41.574;23.734;2023-12-14T05:59:40;94764.91;;;4.65;100.00
9521;BME280;4798;41.574;23.734;2023-12-14T06:02:10;94778.56;;;4.45;100.00
9521;BME280;4798;41.574;23.734;2023-12-14T06:04:39;94778.34;;;4.47;100.00
9521;BME280;4798;41.574;23.734;2023-12-14T06:07:10;94778.81;;;4.44;100.00
9521;BME280;4798;41.574;23.734;2023-12-14T06:09:39;94781.16;;;4.62;100.00
9521;BME280;4798;41.574;23.734;2023-12-14T06:12:08;94778.16;;;4.32;100.00
9521;BME280;4798;41.574;23.734;2023-12-14T06:14:37;94782.72;;;4.41;100.00
9521;BME280;4798;41.574;23.734;2023-12-14T06:17:05;94774.50;;;4.55;100.00
9521;BME280;4798;41.574;23.734;2023-12-14T06:19:35;94787.38;;;4.56;100.00
9521;BME280;4798;41.574;23.734;2023-12-14T06:22:04;94794.06;;;4.69;100.00
9521;BME280;4798;41.574;23.734;2023-12-14T06:24:33;94764.44;;;4.46;100.00
9521;BME280;4798;41.574;23.734;2023-12-14T06:27:01;94798.53;;;4.68;100.00
9521;BME280;4798;41.574;23.734;2023-12-14T06:29:32;94791.03;;;4.77;100.00
9521;BME280;4798;41.574;23.734;2023-12-14T06:32:01;94785.13;;;4.91;100.00
9521;BME280;4798;41.574;23.734;2023-12-14T06:34:29;94791.28;;;5.02;100.00
9521;BME280;4798;41.574;23.734;2023-12-14T06:37:00;94783.69;;;5.00;100.00
9521;BME280;4798;41.574;23.734;2023-12-14T06:39:29;94781.63;;;5.07;100.00
9521;BME280;4798;41.574;23.734;2023-12-14T06:41:59;94778.31;;;4.90;100.00
9521;BME280;4798;41.574;23.734;2023-12-14T06:44:27;94787.31;;;4.99;100.00
9521;BME280;4798;41.574;23.734;2023-12-14T06:46:58;94783.88;;;5.21;100.00
9521;BME280;4798;41.574;23.734;2023-12-14T06:49:26;94803.69;;;5.06;100.00
9521;BME280;4798;41.574;23.734;2023-12-14T06:51:55;94795.94;;;5.22;100.00
9521;BME280;4798;41.574;23.734;2023-12-14T06:54:26;94791.28;;;5.02;100.00
9521;BME280;4798;41.574;23.734;2023-12-14T06:56:54;94793.44;;;5.05;100.00
9521;BME280;4798;41.574;23.734;2023-12-14T06:59:24;94787.47;;;5.14;100.00
9521;BME280;4798;41.574;23.734;2023-12-14T07:01:52;94791.91;;;5.36;100.00
9521;BME280;4798;41.574;23.734;2023-12-14T07:04:21;94796.44;;;5.45;100.00
9521;BME280;4798;41.574;23.734;2023-12-14T07:06:53;94809.03;;;5.17;100.00
9521;BME280;4798;41.574;23.734;2023-12-14T07:09:21;94808.06;;;5.01;100.00
9521;BME280;4798;41.574;23.734;2023-12-14T07:11:51;94485.50;;;3.34;100.00
9521;BME280;4798;41.574;23.734;2023-12-14T07:14:20;94811.50;;;5.55;100.00
9521;BME280;4798;41.574;23.734;2023-12-14T07:16:52;94818.03;;;5.79;100.00
9521;BME280;4798;41.574;23.734;2023-12-14T07:19:21;94819.34;;;5.50;100.00
9521;BME280;4798;41.574;23.734;2023-12-14T07:21:49;94815.19;;;5.27;100.00
9521;BME280;4798;41.574;23.734;2023-12-14T07:24:18;94818.72;;;5.38;100.00
9521;BME280;4798;41.574;23.734;2023-12-14T07:26:46;94817.66;;;5.12;100.00
9521;BME280;4798;41.574;23.734;2023-12-14T07:29:16;94816.03;;;5.33;100.00
9521;BME280;4798;41.574;23.734;2023-12-14T07:31:45;94825.00;;;5.37;100.00
9521;BME280;4798;41.574;23.734;2023-12-14T07:34:13;94820.03;;;5.40;100.00
9521;BME280;4798;41.574;23.734;2023-12-14T07:36:42;94812.34;;;5.60;100.00
9521;BME280;4798;41.574;23.734;2023-12-14T07:39:10;94819.31;;;5.76;100.00
9521;BME280;4798;41.574;23.734;2023-12-14T07:41:39;94828.47;;;5.69;100.00
9521;BME280;4798;41.574;23.734;2023-12-14T07:44:07;94831.16;;;5.79;100.00
9521;BME280;4798;41.574;23.734;2023-12-14T07:46:37;94830.22;;;5.90;100.00
9521;BME280;4798;41.574;23.734;2023-12-14T07:49:08;94824.06;;;6.11;100.00
9521;BME280;4798;41.574;23.734;2023-12-14T07:51:37;94823.44;;;6.36;100.00
9521;BME280;4798;41.574;23.734;2023-12-14T07:54:06;94791.38;;;6.44;100.00
9521;BME280;4798;41.574;23.734;2023-12-14T07:56:34;94828.09;;;6.71;100.00
9521;BME280;4798;41.574;23.734;2023-12-14T07:59:03;94839.41;;;6.71;100.00
9521;BME280;4798;41.574;23.734;2023-12-14T08:01:34;94822.75;;;6.56;100.00
9521;BME280;4798;41.574;23.734;2023-12-14T08:04:04;94819.13;;;6.67;100.00
9521;BME280;4798;41.574;23.734;2023-12-14T08:06:33;94820.16;;;6.66;100.00
9521;BME280;4798;41.574;23.734;2023-12-14T08:09:02;94821.75;;;6.67;100.00
9521;BME280;4798;41.574;23.734;2023-12-14T08:11:31;94825.72;;;6.69;100.00
9521;BME280;4798;41.574;23.734;2023-12-14T08:14:00;94825.44;;;6.66;100.00
9521;BME280;4798;41.574;23.734;2023-12-14T08:16:29;94833.16;;;6.82;100.00
9521;BME280;4798;41.574;23.734;2023-12-14T08:18:57;94840.47;;;6.70;100.00
9521;BME280;4798;41.574;23.734;2023-12-14T08:21:27;94839.91;;;6.16;100.00
9521;BME280;4798;41.574;23.734;2023-12-14T08:23:56;94779.38;;;5.48;100.00
9521;BME280;4798;41.574;23.734;2023-12-14T08:26:25;94842.41;;;6.01;100.00
9521;BME280;4798;41.574;23.734;2023-12-14T08:28:53;94846.19;;;5.84;100.00
9521;BME280;4798;41.574;23.734;2023-12-14T08:31:22;94840.13;;;5.83;100.00
9521;BME280;4798;41.574;23.734;2023-12-14T08:33:50;94832.97;;;6.05;100.00
9521;BME280;4798;41.574;23.734;2023-12-14T08:36:19;94823.66;;;6.29;100.00
9521;BME280;4798;41.574;23.734;2023-12-14T08:38:49;94814.91;;;6.71;100.00
9521;BME280;4798;41.574;23.734;2023-12-14T08:41:18;94819.91;;;6.67;100.00
9521;BME280;4798;41.574;23.734;2023-12-14T08:43:46;94815.81;;;6.34;100.00
9521;BME280;4798;41.574;23.734;2023-12-14T08:46:15;94810.66;;;6.55;100.00
9521;BME280;4798;41.574;23.734;2023-12-14T08:48:44;94797.13;;;6.36;100.00
9521;BME280;4798;41.574;23.734;2023-12-14T08:51:12;94801.13;;;6.02;100.00
9521;BME280;4798;41.574;23.734;2023-12-14T08:53:41;94802.34;;;5.89;100.00
9521;BME280;4798;41.574;23.734;2023-12-14T08:56:12;94807.34;;;6.32;100.00
9521;BME280;4798;41.574;23.734;2023-12-14T08:58:40;94808.69;;;6.35;100.00
9521;BME280;4798;41.574;23.734;2023-12-14T09:01:09;94806.50;;;6.17;100.00
9521;BME280;4798;41.574;23.734;2023-12-14T09:03:37;94805.91;;;6.15;100.00
9521;BME280;4798;41.574;23.734;2023-12-14T09:06:06;94791.91;;;5.99;100.00
9521;BME280;4798;41.574;23.734;2023-12-14T09:08:35;94813.13;;;6.24;100.00
9521;BME280;4798;41.574;23.734;2023-12-14T09:11:04;94808.22;;;6.01;100.00
9521;BME280;4798;41.574;23.734;2023-12-14T09:13:34;94797.72;;;6.06;100.00
9521;BME280;4798;41.574;23.734;2023-12-14T09:16:03;94799.50;;;6.43;100.00
9521;BME280;4798;41.574;23.734;2023-12-14T09:18:32;94801.16;;;6.07;100.00
9521;BME280;4798;41.574;23.734;2023-12-14T09:21:01;94797.19;;;6.51;100.00
9521;BME280;4798;41.574;23.734;2023-12-14T09:23:30;94798.59;;;6.69;100.00
9521;BME280;4798;41.574;23.734;2023-12-14T09:25:59;94787.25;;;6.68;100.00
9521;BME280;4798;41.574;23.734;2023-12-14T09:28:27;94793.41;;;6.89;100.00
9521;BME280;4798;41.574;23.734;2023-12-14T09:30:57;94793.94;;;7.01;100.00
9521;BME280;4798;41.574;23.734;2023-12-14T09:33:26;94782.94;;;7.29;100.00
9521;BME280;4798;41.574;23.734;2023-12-14T09:35:55;94775.34;;;7.63;100.00
9521;BME280;4798;41.574;23.734;2023-12-14T09:38:23;94748.94;;;8.03;100.00
9521;BME280;4798;41.574;23.734;2023-12-14T09:40:52;94749.66;;;8.44;100.00
9521;BME280;4798;41.574;23.734;2023-12-14T09:43:20;94742.47;;;8.60;100.00
9521;BME280;4798;41.574;23.734;2023-12-14T09:45:51;94735.03;;;8.72;100.00
9521;BME280;4798;41.574;23.734;2023-12-14T09:48:22;94742.31;;;9.34;100.00
9521;BME280;4798;41.574;23.734;2023-12-14T09:50:51;94715.22;;;9.18;100.00
9521;BME280;4798;41.574;23.734;2023-12-14T09:53:20;94717.06;;;9.51;100.00
9521;BME280;4798;41.574;23.734;2023-12-14T09:55:48;94725.03;;;9.80;98.52
9521;BME280;4798;41.574;23.734;2023-12-14T09:58:17;94714.97;;;10.11;97.40
9521;BME280;4798;41.574;23.734;2023-12-14T10:00:46;94723.00;;;10.53;94.15
9521;BME280;4798;41.574;23.734;2023-12-14T10:03:20;94709.81;;;11.28;91.95
9521;BME280;4798;41.574;23.734;2023-12-14T10:05:50;94702.59;;;11.66;88.04
9521;BME280;4798;41.574;23.734;2023-12-14T10:08:19;94691.34;;;12.33;85.45
9521;BME280;4798;41.574;23.734;2023-12-14T10:10:49;94694.28;;;12.45;82.51
9521;BME280;4798;41.574;23.734;2023-12-14T10:13:21;94714.66;;;12.50;83.05
9521;BME280;4798;41.574;23.734;2023-12-14T10:15:50;94714.47;;;12.73;80.63
9521;BME280;4798;41.574;23.734;2023-12-14T10:18:22;94720.25;;;12.75;78.98
9521;BME280;4798;41.574;23.734;2023-12-14T10:20:53;94708.34;;;12.73;79.17
9521;BME280;4798;41.574;23.734;2023-12-14T10:23:22;94708.44;;;12.27;78.42
9521;BME280;4798;41.574;23.734;2023-12-14T10:25:52;94699.50;;;12.50;78.43
9521;BME280;4798;41.574;23.734;2023-12-14T10:28:22;94699.22;;;12.52;76.55
9521;BME280;4798;41.574;23.734;2023-12-14T10:30:51;94700.56;;;12.08;77.61
9521;BME280;4798;41.574;23.734;2023-12-14T10:33:21;94692.09;;;12.20;77.01
9521;BME280;4798;41.574;23.734;2023-12-14T10:35:50;94685.34;;;12.14;76.96
9521;BME280;4798;41.574;23.734;2023-12-14T10:38:20;94669.63;;;11.85;77.55
9521;BME280;4798;41.574;23.734;2023-12-14T10:40:49;94671.69;;;11.75;80.01
9521;BME280;4798;41.574;23.734;2023-12-14T10:43:20;94666.28;;;11.80;79.74
9521;BME280;4798;41.574;23.734;2023-12-14T10:46:09;94659.41;;;11.92;82.34
9521;BME280;4798;41.574;23.734;2023-12-14T10:48:39;94655.22;;;12.19;78.72
9521;BME280;4798;41.574;23.734;2023-12-14T10:51:10;94661.38;;;11.87;79.03
9521;BME280;4798;41.574;23.734;2023-12-14T10:53:41;94669.47;;;11.95;79.33
9521;BME280;4798;41.574;23.734;2023-12-14T10:56:14;94666.72;;;12.00;79.21
9521;BME280;4798;41.574;23.734;2023-12-14T10:58:48;94655.97;;;11.27;81.03
9521;BME280;4798;41.574;23.734;2023-12-14T11:01:19;94660.06;;;11.01;83.31
9521;BME280;4798;41.574;23.734;2023-12-14T11:03:48;94662.41;;;11.40;83.00
9521;BME280;4798;41.574;23.734;2023-12-14T11:06:30;94659.13;;;11.29;82.83
9521;BME280;4798;41.574;23.734;2023-12-14T11:09:02;94660.75;;;10.51;86.99
9521;BME280;4798;41.574;23.734;2023-12-14T11:11:54;94653.19;;;10.63;90.22
9521;BME280;4798;41.574;23.734;2023-12-14T11:14:25;94658.59;;;10.53;90.17
9521;BME280;4798;41.574;23.734;2023-12-14T11:16:55;94660.63;;;10.42;92.23
9521;BME280;4798;41.574;23.734;2023-12-14T11:19:26;94664.25;;;10.70;91.44
9521;BME280;4798;41.574;23.734;2023-12-14T11:22:22;94664.00;;;10.66;90.78
9521;BME280;4798;41.574;23.734;2023-12-14T11:24:54;94640.06;;;10.34;93.73
9521;BME280;4798;41.574;23.734;2023-12-14T11:27:28;94637.56;;;10.61;94.16
9521;BME280;4798;41.574;23.734;2023-12-14T11:29:58;94625.97;;;10.95;91.15
9521;BME280;4798;41.574;23.734;2023-12-14T11:32:27;94627.28;;;10.60;92.24
9521;BME280;4798;41.574;23.734;2023-12-14T11:34:56;94598.06;;;10.65;93.66
9521;BME280;4798;41.574;23.734;2023-12-14T11:37:25;94627.25;;;10.78;91.50
9521;BME280;4798;41.574;23.734;2023-12-14T11:39:56;94632.38;;;10.33;94.76
9521;BME280;4798;41.574;23.734;2023-12-14T11:42:24;94619.97;;;10.52;94.02
9521;BME280;4798;41.574;23.734;2023-12-14T11:44:58;94632.19;;;10.48;95.83
9521;BME280;4798;41.574;23.734;2023-12-14T11:47:27;94623.84;;;10.59;96.23
9521;BME280;4798;41.574;23.734;2023-12-14T11:49:55;94633.06;;;10.99;94.31
9521;BME280;4798;41.574;23.734;2023-12-14T11:52:24;94616.22;;;11.41;91.23
9521;BME280;4798;41.574;23.734;2023-12-14T11:54:53;94613.84;;;11.39;90.73
9521;BME280;4798;41.574;23.734;2023-12-14T11:57:28;94598.69;;;11.26;91.12
9521;BME280;4798;41.574;23.734;2023-12-14T11:59:59;94601.63;;;11.57;90.40
9521;BME280;4798;41.574;23.734;2023-12-14T12:02:27;94589.13;;;11.58;90.40
9521;BME280;4798;41.574;23.734;2023-12-14T12:04:56;94581.50;;;11.70;89.08
9521;BME280;4798;41.574;23.734;2023-12-14T12:07:24;94582.63;;;11.96;87.02
9521;BME280;4798;41.574;23.734;2023-12-14T12:09:53;94586.31;;;11.68;88.46
9521;BME280;4798;41.574;23.734;2023-12-14T12:12:23;94595.09;;;11.68;89.50
9521;BME280;4798;41.574;23.734;2023-12-14T12:14:52;94599.56;;;11.68;90.20
9521;BME280;4798;41.574;23.734;2023-12-14T12:17:21;94598.53;;;11.82;91.14
9521;BME280;4798;41.574;23.734;2023-12-14T12:19:49;94599.34;;;11.96;90.02
9521;BME280;4798;41.574;23.734;2023-12-14T12:22:18;94595.25;;;11.58;90.87
9521;BME280;4798;41.574;23.734;2023-12-14T12:24:46;94590.13;;;11.62;92.68
9521;BME280;4798;41.574;23.734;2023-12-14T12:27:27;94600.59;;;11.72;89.92
9521;BME280;4798;41.574;23.734;2023-12-14T12:29:56;94588.66;;;11.56;91.90
9521;BME280;4798;41.574;23.734;2023-12-14T12:32:25;94602.28;;;11.35;93.36
9521;BME280;4798;41.574;23.734;2023-12-14T12:34:53;94594.03;;;11.18;95.15
9521;BME280;4798;41.574;23.734;2023-12-14T12:37:22;94585.25;;;11.36;94.48
9521;BME280;4798;41.574;23.734;2023-12-14T12:39:51;94602.78;;;11.51;93.75
9521;BME280;4798;41.574;23.734;2023-12-14T12:42:20;94598.91;;;11.43;95.31
9521;BME280;4798;41.574;23.734;2023-12-14T12:44:52;94603.75;;;11.41;95.95
9521;BME280;4798;41.574;23.734;2023-12-14T12:47:21;94597.09;;;11.58;94.77
9521;BME280;4798;41.574;23.734;2023-12-14T12:49:50;94579.59;;;11.57;93.30
9521;BME280;4798;41.574;23.734;2023-12-14T12:52:18;94597.59;;;11.60;93.76
9521;BME280;4798;41.574;23.734;2023-12-14T12:54:47;94582.72;;;11.59;93.39
9521;BME280;4798;41.574;23.734;2023-12-14T12:57:16;94605.19;;;11.66;93.79
9521;BME280;4798;41.574;23.734;2023-12-14T12:59:44;94597.94;;;11.39;92.17
9521;BME280;4798;41.574;23.734;2023-12-14T13:02:15;94596.97;;;10.84;96.93
9521;BME280;4798;41.574;23.734;2023-12-14T13:04:43;94605.25;;;10.97;100.00
9521;BME280;4798;41.574;23.734;2023-12-14T13:07:13;94594.34;;;11.17;97.77
9521;BME280;4798;41.574;23.734;2023-12-14T13:09:42;94592.97;;;10.87;99.68
9521;BME280;4798;41.574;23.734;2023-12-14T13:12:10;94593.97;;;11.23;99.53
9521;BME280;4798;41.574;23.734;2023-12-14T13:14:40;94569.72;;;11.30;97.37
9521;BME280;4798;41.574;23.734;2023-12-14T13:17:08;94590.13;;;11.48;96.18
9521;BME280;4798;41.574;23.734;2023-12-14T13:19:38;94592.78;;;11.62;94.77
9521;BME280;4798;41.574;23.734;2023-12-14T13:22:07;94575.44;;;11.37;95.41